logo
Rechercher aéroport 
image banner adimage banner adimage banner ad
image banner ad

FAKURU - Kuruman / Johan Pienaar

Situé à , South Africa

ICAO - , IATA -

Données fournies par Airmate  

Information générale

Coordonnées: S27°27'35" E23°24'45"
Élévation : 4383 feet MSL.
 
Voir autres Aéroports à Northern Cape

Données opérationnelles

Special qualification required
Heure actuelle UTC:
Heure actuelle locale:
Météo à : - ( 0 km )
METAR: CYRV 220923Z AUTO 32003KT 250V330 9SM -RA FEW014 BKN028 OVC050 09/08 A2974 RMK SLP081
Voir NOTAMs / SUP AIP / TFR affectant cet aéroport [VIEW]
Fréquences de communication: [VIEW]

Pistes:

Identifiant RWYQFULongueur (ft)Largeur (ft)SurfaceLDA (ft)
02165°557749ASPH
20345°557749ASPH

Coordonnées de l'aéroport

Adresse: South Africa

Vue satellite de FAKURU